Time;durP1;ratioP1;P1;durP2;ratioP2;P2;SDS_P1;SDS_P2;PMS_P1;PMS_P2;Temp;Humidity;BMP_temperature;BMP_pressure;BME280_temperature;BME280_humidity;BME280_pressure;Samples;Min_cycle;Max_cycle;Signal;HPM_P1;HPM_P2
2021/11/13 00:02:24;;;;;;;3.90;1.63;;;19.90;43.00;;;;;;4901154;29;20056;-55
2021/11/13 00:04:50;;;;;;;5.65;2.17;;;19.90;43.00;;;;;;4901403;29;20489;-50
2021/11/13 00:07:18;;;;;;;4.30;1.90;;;19.90;43.00;;;;;;4901286;29;20035;-50
2021/11/13 00:09:43;;;;;;;5.03;2.33;;;19.90;43.00;;;;;;4901457;29;20046;-51
2021/11/13 00:12:09;;;;;;;5.25;2.00;;;19.90;43.00;;;;;;4901450;29;20108;-50
2021/11/13 00:14:35;;;;;;;4.03;1.80;;;19.90;43.00;;;;;;4901229;29;20404;-50
2021/11/13 00:17:01;;;;;;;4.53;2.22;;;19.90;43.00;;;;;;4901138;29;20049;-50
2021/11/13 00:19:26;;;;;;;4.43;2.00;;;19.90;43.00;;;;;;4901381;29;20037;-51
2021/11/13 00:21:52;;;;;;;4.70;2.03;;;19.80;43.00;;;;;;4900931;29;20044;-51
2021/11/13 00:24:18;;;;;;;5.35;2.22;;;19.80;43.00;;;;;;4901257;29;20460;-55
2021/11/13 00:26:43;;;;;;;5.18;2.10;;;19.90;43.00;;;;;;4901094;29;20388;-54
2021/11/13 00:29:09;;;;;;;4.18;2.08;;;19.80;43.00;;;;;;4900990;29;20388;-51
2021/11/13 00:31:35;;;;;;;4.25;2.00;;;19.80;43.00;;;;;;4900956;29;20044;-50
2021/11/13 00:34:01;;;;;;;5.57;2.13;;;19.80;43.00;;;;;;4901153;29;20052;-51
2021/11/13 00:36:27;;;;;;;4.57;2.10;;;19.80;43.00;;;;;;4900769;29;20119;-50
2021/11/13 00:38:53;;;;;;;4.20;1.95;;;19.80;43.00;;;;;;4901061;29;20099;-51
2021/11/13 00:41:19;;;;;;;4.65;1.77;;;19.80;43.00;;;;;;4900810;29;20469;-50
2021/11/13 00:43:46;;;;;;;5.13;1.92;;;19.80;43.00;;;;;;4900817;29;20064;-50
2021/11/13 00:46:11;;;;;;;4.68;1.90;;;19.80;43.00;;;;;;4900626;29;20430;-54
2021/11/13 00:48:37;;;;;;;4.80;1.90;;;19.80;43.00;;;;;;4900862;29;20076;-51
2021/11/13 00:51:03;;;;;;;3.75;1.75;;;19.80;43.00;;;;;;4900653;29;20449;-52
2021/11/13 00:53:29;;;;;;;3.72;1.88;;;19.80;43.00;;;;;;4900803;29;20080;-54
2021/11/13 00:55:54;;;;;;;4.35;2.05;;;19.90;43.00;;;;;;4900653;29;20208;-52
2021/11/13 00:58:20;;;;;;;4.20;1.83;;;19.80;43.00;;;;;;4900796;29;20063;-51
2021/11/13 01:00:46;;;;;;;3.88;1.67;;;19.80;43.00;;;;;;4900579;29;20128;-51
2021/11/13 01:03:12;;;;;;;3.85;1.70;;;19.80;43.00;;;;;;4899831;29;20107;-55
2021/11/13 01:05:37;;;;;;;3.97;1.80;;;19.80;43.00;;;;;;4900026;29;20033;-55
2021/11/13 01:08:03;;;;;;;5.88;2.13;;;19.80;43.10;;;;;;4900164;29;20119;-55
2021/11/13 01:10:29;;;;;;;4.15;1.88;;;19.80;43.00;;;;;;4900259;29;20032;-50
2021/11/13 01:12:54;;;;;;;4.75;1.85;;;19.80;43.10;;;;;;4900314;29;20461;-50
2021/11/13 01:15:21;;;;;;;4.25;1.88;;;19.80;43.10;;;;;;4900181;29;20496;-49
2021/11/13 01:17:48;;;;;;;4.25;1.70;;;19.80;43.10;;;;;;4900121;29;20044;-52
2021/11/13 01:20:15;;;;;;;4.90;1.88;;;19.80;43.00;;;;;;4900040;29;20028;-49
2021/11/13 01:22:42;;;;;;;4.07;1.77;;;19.80;43.00;;;;;;4900341;29;20404;-52
2021/11/13 01:25:09;;;;;;;4.78;1.77;;;19.80;43.00;;;;;;4900224;29;20077;-50
2021/11/13 01:27:35;;;;;;;3.90;1.70;;;19.80;43.00;;;;;;4900241;29;20041;-50
2021/11/13 01:30:01;;;;;;;3.40;1.55;;;19.80;43.00;;;;;;4900195;29;20031;-51
2021/11/13 01:32:26;;;;;;;4.35;2.05;;;19.80;43.00;;;;;;4900030;29;20582;-50
2021/11/13 01:34:52;;;;;;;4.20;1.80;;;19.80;43.10;;;;;;4900092;29;20035;-49
2021/11/13 01:37:18;;;;;;;4.15;2.03;;;19.80;43.00;;;;;;4900017;29;20035;-50
2021/11/13 01:39:44;;;;;;;3.97;1.92;;;19.80;43.00;;;;;;4899732;29;20029;-52
2021/11/13 01:42:10;;;;;;;4.13;1.92;;;19.80;43.00;;;;;;4899810;29;20392;-52
2021/11/13 01:44:36;;;;;;;4.38;2.13;;;19.80;43.00;;;;;;4899951;29;20036;-54
2021/11/13 01:47:03;;;;;;;3.92;2.00;;;19.80;43.00;;;;;;4899826;29;20032;-51
2021/11/13 01:49:29;;;;;;;4.95;2.33;;;19.80;43.00;;;;;;4899573;29;20465;-53
2021/11/13 01:51:55;;;;;;;4.18;1.80;;;19.80;43.10;;;;;;4899562;29;20032;-49
2021/11/13 01:54:21;;;;;;;3.97;2.00;;;19.80;43.00;;;;;;4899633;29;20025;-52
2021/11/13 01:56:50;;;;;;;5.38;1.90;;;19.80;43.00;;;;;;4899489;29;20028;-51
2021/11/13 01:59:18;;;;;;;4.60;2.38;;;19.80;43.10;;;;;;4899604;29;20032;-50
2021/11/13 02:01:44;;;;;;;4.45;1.98;;;19.80;43.00;;;;;;4898942;29;20051;-54
2021/11/13 02:04:10;;;;;;;4.13;1.83;;;19.80;43.10;;;;;;4899523;29;20362;-52
2021/11/13 02:06:35;;;;;;;3.92;1.60;;;19.80;43.00;;;;;;4899303;29;20056;-51
2021/11/13 02:09:01;;;;;;;3.45;1.70;;;19.80;43.10;;;;;;4899141;29;20028;-50
2021/11/13 02:11:27;;;;;;;4.28;1.88;;;19.70;43.00;;;;;;4899325;29;20029;-50
2021/11/13 02:13:55;;;;;;;4.18;1.60;;;19.80;43.10;;;;;;4898247;29;20540;-50
2021/11/13 02:16:21;;;;;;;4.57;1.95;;;19.80;43.10;;;;;;4898997;29;20033;-51
2021/11/13 02:18:46;;;;;;;4.28;1.80;;;19.80;43.00;;;;;;4898865;29;20497;-55
2021/11/13 02:21:12;;;;;;;4.13;1.70;;;19.80;43.10;;;;;;4898861;29;20044;-55
2021/11/13 02:23:40;;;;;;;3.38;1.70;;;19.80;43.10;;;;;;4898829;29;20536;-55
2021/11/13 02:26:05;;;;;;;3.30;1.70;;;19.70;43.00;;;;;;4899028;29;20397;-54
2021/11/13 02:28:35;;;;;;;3.90;1.80;;;19.70;43.00;;;;;;4899050;29;20028;-50
2021/11/13 02:31:02;;;;;;;3.75;1.80;;;19.80;43.10;;;;;;4898637;29;20039;-52
2021/11/13 02:33:27;;;;;;;3.15;1.80;;;19.80;43.10;;;;;;4898648;29;20072;-51
2021/11/13 02:35:53;;;;;;;2.53;1.45;;;19.80;43.00;;;;;;4898590;29;20152;-50
2021/11/13 02:38:25;;;;;;;4.15;1.92;;;19.80;43.10;;;;;;4898605;29;20484;-50
2021/11/13 02:40:58;;;;;;;4.05;1.95;;;19.70;43.00;;;;;;4898813;29;20075;-51
2021/11/13 02:43:26;;;;;;;2.95;1.40;;;19.80;43.00;;;;;;4898878;29;20592;-53
2021/11/13 02:45:56;;;;;;;5.10;2.20;;;19.80;43.00;;;;;;4898435;29;20024;-49
2021/11/13 02:48:24;;;;;;;4.70;2.20;;;19.80;43.10;;;;;;4898729;29;20039;-50
2021/11/13 02:50:50;;;;;;;4.35;1.85;;;19.70;43.10;;;;;;4898449;29;20033;-51
2021/11/13 02:53:22;;;;;;;4.00;1.77;;;19.80;43.10;;;;;;4898622;29;20021;-50
2021/11/13 02:55:50;;;;;;;3.45;1.80;;;19.80;43.10;;;;;;4898258;29;20503;-53
2021/11/13 02:58:16;;;;;;;4.18;2.00;;;19.70;43.10;;;;;;4898364;29;20063;-49
2021/11/13 03:00:43;;;;;;;4.38;2.17;;;19.80;43.10;;;;;;4898304;29;20068;-50
2021/11/13 03:03:13;;;;;;;5.28;2.20;;;19.70;43.10;;;;;;4898162;29;20052;-51
2021/11/13 03:05:49;;;;;;;3.75;1.63;;;19.70;43.10;;;;;;4898288;29;20025;-51
2021/11/13 03:08:32;;;;;;;4.30;1.95;;;19.70;43.10;;;;;;4898214;29;20033;-51
2021/11/13 03:11:03;;;;;;;3.25;1.60;;;19.70;43.10;;;;;;4898381;29;20060;-52
2021/11/13 03:13:29;;;;;;;3.45;1.70;;;19.70;43.10;;;;;;4898177;29;20020;-50
2021/11/13 03:15:55;;;;;;;5.55;2.00;;;19.80;43.10;;;;;;4898054;29;20465;-51
2021/11/13 03:18:21;;;;;;;4.57;1.88;;;19.70;43.10;;;;;;4898102;29;20043;-54
2021/11/13 03:20:47;;;;;;;4.05;1.88;;;19.80;43.20;;;;;;4898099;29;20524;-50
2021/11/13 03:23:14;;;;;;;4.18;1.73;;;19.70;43.20;;;;;;4898189;29;20115;-49
2021/11/13 03:25:46;;;;;;;3.42;1.70;;;19.70;43.20;;;;;;4897955;29;20393;-51
2021/11/13 03:28:14;;;;;;;3.60;1.80;;;19.70;43.20;;;;;;4897981;29;20540;-50
2021/11/13 03:30:40;;;;;;;3.03;1.60;;;19.80;43.10;;;;;;4897958;29;20024;-49
2021/11/13 03:33:06;;;;;;;4.18;1.98;;;19.80;43.20;;;;;;4898091;29;20031;-50
2021/11/13 03:35:33;;;;;;;4.60;1.70;;;19.70;43.20;;;;;;4897720;29;20477;-51
2021/11/13 03:38:08;;;;;;;4.05;2.05;;;19.70;43.20;;;;;;4897747;29;20420;-50
2021/11/13 03:40:36;;;;;;;4.85;1.92;;;19.70;43.20;;;;;;4897712;29;20043;-50
2021/11/13 03:43:02;;;;;;;4.00;1.80;;;19.80;43.20;;;;;;4897663;29;20511;-52
2021/11/13 03:45:28;;;;;;;4.15;1.90;;;19.70;43.30;;;;;;4897981;29;20031;-53
2021/11/13 03:47:54;;;;;;;3.50;1.40;;;19.70;43.20;;;;;;4897692;29;20037;-50
2021/11/13 03:50:19;;;;;;;5.95;1.88;;;19.70;43.30;;;;;;4897989;29;20028;-53
2021/11/13 03:52:45;;;;;;;4.85;1.83;;;19.70;43.20;;;;;;4897577;29;20535;-53
2021/11/13 03:55:11;;;;;;;4.15;2.13;;;19.70;43.30;;;;;;4897821;29;20040;-51
2021/11/13 03:57:37;;;;;;;3.50;1.75;;;19.70;43.30;;;;;;4897925;29;20025;-51
2021/11/13 04:00:05;;;;;;;3.55;1.67;;;19.70;43.30;;;;;;4897686;29;20056;-50
2021/11/13 04:02:31;;;;;;;5.72;1.73;;;19.70;43.30;;;;;;4897165;29;20052;-50
2021/11/13 04:04:57;;;;;;;4.03;1.70;;;19.70;43.30;;;;;;4921915;29;20039;-51
2021/11/13 04:07:22;;;;;;;2.58;1.30;;;19.70;43.40;;;;;;4935586;29;20091;-51
2021/11/13 04:09:48;;;;;;;4.18;1.50;;;19.70;43.30;;;;;;4935648;29;20111;-55
2021/11/13 04:12:14;;;;;;;3.42;1.70;;;19.70;43.30;;;;;;4935648;29;20476;-51
2021/11/13 04:14:41;;;;;;;6.90;2.08;;;19.70;43.30;;;;;;4935556;29;20460;-55
2021/11/13 04:17:08;;;;;;;3.65;1.67;;;19.70;43.30;;;;;;4935504;29;20028;-50
2021/11/13 04:19:34;;;;;;;4.65;1.95;;;19.70;43.30;;;;;;4935509;29;20035;-49
2021/11/13 04:21:59;;;;;;;4.05;2.00;;;19.70;43.40;;;;;;4935435;29;20082;-50
2021/11/13 04:24:25;;;;;;;3.15;1.42;;;19.70;43.40;;;;;;4935216;29;20471;-51
2021/11/13 04:26:51;;;;;;;4.10;1.77;;;19.70;43.40;;;;;;4935208;29;20032;-53
2021/11/13 04:29:17;;;;;;;3.15;1.50;;;19.70;43.40;;;;;;4935479;29;20460;-55
2021/11/13 04:31:43;;;;;;;3.42;1.70;;;19.70;43.40;;;;;;4935406;29;20483;-50
2021/11/13 04:34:13;;;;;;;3.50;1.60;;;19.70;43.40;;;;;;4935400;29;20144;-52
2021/11/13 04:36:44;;;;;;;3.55;1.67;;;19.70;43.40;;;;;;4935489;29;20032;-50
2021/11/13 04:39:11;;;;;;;5.05;2.05;;;19.70;43.40;;;;;;4938640;29;20032;-53
2021/11/13 04:41:38;;;;;;;4.55;1.80;;;19.70;43.40;;;;;;4938634;29;20047;-51
2021/11/13 04:44:04;;;;;;;4.38;1.80;;;19.70;43.40;;;;;;4938781;29;20063;-51
2021/11/13 04:46:29;;;;;;;4.35;1.80;;;19.70;43.40;;;;;;4938455;29;20052;-51
2021/11/13 04:48:55;;;;;;;3.13;1.52;;;19.70;43.50;;;;;;4938457;29;20028;-50
2021/11/13 04:51:21;;;;;;;4.35;1.70;;;19.70;43.40;;;;;;4938557;29;20030;-55
2021/11/13 04:53:47;;;;;;;3.70;1.60;;;19.70;43.40;;;;;;4938417;29;20082;-51
2021/11/13 04:56:12;;;;;;;3.50;1.80;;;19.70;43.40;;;;;;4938331;29;20102;-50
2021/11/13 04:58:38;;;;;;;3.30;1.98;;;19.70;43.40;;;;;;4938325;29;20024;-51
2021/11/13 05:01:04;;;;;;;3.88;1.63;;;19.70;43.50;;;;;;4938449;29;20024;-54
2021/11/13 05:03:30;;;;;;;4.63;1.60;;;19.70;43.50;;;;;;4938031;29;20059;-51
2021/11/13 05:05:56;;;;;;;4.07;1.55;;;19.70;43.50;;;;;;4938174;29;20038;-51
2021/11/13 05:08:22;;;;;;;3.53;1.63;;;19.70;43.40;;;;;;4938188;29;20032;-50
2021/11/13 05:10:49;;;;;;;4.18;1.60;;;19.70;43.50;;;;;;4938083;29;20027;-53
2021/11/13 05:13:14;;;;;;;4.05;1.70;;;19.70;43.40;;;;;;4938003;29;20032;-51
2021/11/13 05:15:40;;;;;;;3.15;1.60;;;19.70;43.50;;;;;;4938240;29;20020;-51
2021/11/13 05:18:06;;;;;;;4.18;1.70;;;19.70;43.50;;;;;;4938113;29;20119;-51
2021/11/13 05:20:32;;;;;;;3.65;1.60;;;19.80;43.40;;;;;;4937992;29;20024;-50
2021/11/13 05:22:57;;;;;;;3.30;1.70;;;19.80;43.40;;;;;;4937856;29;20027;-53
2021/11/13 05:25:23;;;;;;;3.08;1.35;;;19.80;43.40;;;;;;4938115;29;20106;-54
2021/11/13 05:27:49;;;;;;;4.68;1.60;;;19.80;43.40;;;;;;4937781;29;20020;-54
2021/11/13 05:30:17;;;;;;;4.13;1.83;;;19.90;43.40;;;;;;4938048;29;20035;-52
2021/11/13 05:32:43;;;;;;;4.00;1.58;;;19.90;43.30;;;;;;4937685;29;20035;-50
2021/11/13 05:35:10;;;;;;;2.75;1.30;;;19.90;43.30;;;;;;4937915;29;20039;-52
2021/11/13 05:37:36;;;;;;;3.55;1.70;;;19.90;43.30;;;;;;4937874;29;20090;-52
2021/11/13 05:40:04;;;;;;;2.75;1.35;;;20.00;43.30;;;;;;4937905;29;20436;-49
2021/11/13 05:42:29;;;;;;;4.05;1.70;;;20.00;43.20;;;;;;4937403;29;20040;-49
2021/11/13 05:44:55;;;;;;;3.28;1.60;;;20.00;43.20;;;;;;4937761;29;20078;-53
2021/11/13 05:47:21;;;;;;;2.85;1.45;;;20.00;43.20;;;;;;4937773;29;20031;-54
2021/11/13 05:49:47;;;;;;;5.80;1.60;;;20.00;43.20;;;;;;4936179;29;20463;-51
2021/11/13 05:52:13;;;;;;;4.30;1.50;;;20.00;43.20;;;;;;4937420;29;20032;-51
2021/11/13 05:54:38;;;;;;;3.38;1.50;;;20.00;43.20;;;;;;4937282;29;20476;-51
2021/11/13 05:57:04;;;;;;;3.17;1.60;;;20.00;43.20;;;;;;4937221;29;20031;-50
2021/11/13 05:59:29;;;;;;;2.88;1.25;;;20.10;43.20;;;;;;4937461;29;20107;-50
2021/11/13 06:01:55;;;;;;;3.65;1.67;;;20.10;43.20;;;;;;4937154;29;20036;-52
2021/11/13 06:04:20;;;;;;;3.63;1.52;;;20.10;43.20;;;;;;4937272;29;20036;-51
2021/11/13 06:06:46;;;;;;;3.33;1.50;;;20.10;43.20;;;;;;4937031;29;20496;-53
2021/11/13 06:09:11;;;;;;;3.70;1.45;;;20.10;43.30;;;;;;4937310;29;20122;-55
2021/11/13 06:11:37;;;;;;;2.67;1.27;;;20.10;43.30;;;;;;4936990;29;20036;-52
2021/11/13 06:14:03;;;;;;;4.25;2.05;;;20.10;43.30;;;;;;4937172;29;20460;-50
2021/11/13 06:16:28;;;;;;;3.95;1.50;;;20.10;43.30;;;;;;4937103;29;20090;-50
2021/11/13 06:18:54;;;;;;;5.70;1.83;;;20.10;43.30;;;;;;4936947;29;20031;-55
2021/11/13 06:21:19;;;;;;;4.05;1.73;;;20.10;43.40;;;;;;4936842;29;20391;-50
2021/11/13 06:23:45;;;;;;;2.88;1.50;;;20.10;43.40;;;;;;4936996;29;20028;-56
2021/11/13 06:26:12;;;;;;;4.13;1.50;;;20.10;43.30;;;;;;4936690;29;20032;-55
2021/11/13 06:28:38;;;;;;;3.28;1.75;;;20.10;43.40;;;;;;4936860;29;20035;-50
2021/11/13 06:31:03;;;;;;;3.88;1.65;;;20.10;43.40;;;;;;4936794;29;20060;-52
2021/11/13 06:33:30;;;;;;;3.53;1.30;;;20.10;43.40;;;;;;4936719;29;20070;-53
2021/11/13 06:35:56;;;;;;;4.40;1.77;;;20.10;43.40;;;;;;4936717;29;20431;-53
2021/11/13 06:38:21;;;;;;;2.97;1.30;;;20.10;43.40;;;;;;4936707;29;20112;-54
2021/11/13 06:40:47;;;;;;;3.95;1.92;;;20.10;43.40;;;;;;4936270;29;20051;-52
2021/11/13 06:43:13;;;;;;;1.95;1.00;;;20.10;43.40;;;;;;4936645;29;20063;-52
2021/11/13 06:45:38;;;;;;;2.90;1.30;;;20.10;43.40;;;;;;4936617;29;20460;-52
2021/11/13 06:48:05;;;;;;;2.17;1.25;;;20.10;43.40;;;;;;4936589;29;20375;-55
2021/11/13 06:50:31;;;;;;;3.50;1.70;;;20.10;43.50;;;;;;4936504;29;20115;-54
2021/11/13 06:52:57;;;;;;;3.85;1.63;;;20.10;43.50;;;;;;4936417;29;20110;-54
2021/11/13 06:55:22;;;;;;;2.10;1.17;;;20.10;43.40;;;;;;4936065;29;20476;-55
2021/11/13 06:57:48;;;;;;;4.32;1.45;;;20.10;43.50;;;;;;4936391;29;20043;-54
2021/11/13 07:00:17;;;;;;;2.88;1.30;;;20.10;43.50;;;;;;4935731;29;20490;-55
2021/11/13 07:02:43;;;;;;;3.13;1.52;;;20.10;43.50;;;;;;4935985;29;20047;-55
2021/11/13 07:05:09;;;;;;;3.30;1.40;;;20.10;43.50;;;;;;4936018;29;20027;-53
2021/11/13 07:07:35;;;;;;;4.10;1.58;;;20.10;43.50;;;;;;4936248;29;20111;-55
2021/11/13 07:10:06;;;;;;;2.38;1.15;;;20.10;43.50;;;;;;4935926;29;20051;-53
2021/11/13 07:12:32;;;;;;;3.28;1.48;;;20.10;43.50;;;;;;4935896;29;20036;-55
2021/11/13 07:14:57;;;;;;;3.17;1.45;;;20.20;43.50;;;;;;4935874;29;20119;-52
2021/11/13 07:17:23;;;;;;;2.95;1.30;;;20.10;43.50;;;;;;4935950;29;20079;-54
2021/11/13 07:19:49;;;;;;;3.78;1.15;;;20.10;43.50;;;;;;4935854;29;20031;-54
2021/11/13 07:22:16;;;;;;;3.65;1.15;;;20.10;43.50;;;;;;4935736;29;20035;-53
2021/11/13 07:24:42;;;;;;;2.78;1.42;;;20.10;43.50;;;;;;4935684;29;20042;-53
2021/11/13 07:27:09;;;;;;;3.45;1.30;;;20.10;43.50;;;;;;4936005;29;20432;-51
2021/11/13 07:29:43;;;;;;;3.75;1.50;;;20.20;43.50;;;;;;4935719;29;20521;-55
2021/11/13 07:32:08;;;;;;;2.50;1.27;;;20.20;43.60;;;;;;4935696;29;20498;-52
2021/11/13 07:34:34;;;;;;;2.88;1.40;;;20.10;43.60;;;;;;4935922;29;20036;-51
2021/11/13 07:36:59;;;;;;;3.15;1.52;;;20.10;43.50;;;;;;4935775;29;20019;-54
2021/11/13 07:39:25;;;;;;;3.90;1.73;;;20.20;43.60;;;;;;4935881;29;20031;-51
2021/11/13 07:41:51;;;;;;;2.30;1.27;;;20.10;43.60;;;;;;4935583;29;20035;-54
2021/11/13 07:44:16;;;;;;;3.30;1.30;;;20.20;43.50;;;;;;4935542;29;20024;-54
2021/11/13 07:46:42;;;;;;;2.95;1.30;;;20.20;43.50;;;;;;4935558;29;20036;-49
2021/11/13 07:49:10;;;;;;;3.00;1.30;;;20.20;43.60;;;;;;4935640;29;20028;-49
2021/11/13 07:51:36;;;;;;;3.47;1.40;;;20.20;43.60;;;;;;4935298;29;20302;-54
2021/11/13 07:54:02;;;;;;;3.13;1.50;;;20.20;43.60;;;;;;4935855;29;20048;-51
2021/11/13 07:56:29;;;;;;;3.17;1.40;;;20.20;43.60;;;;;;4935375;29;20507;-50
2021/11/13 07:58:55;;;;;;;3.15;1.60;;;20.20;43.60;;;;;;4935301;29;20361;-52
2021/11/13 08:01:21;;;;;;;3.83;1.42;;;20.20;43.60;;;;;;4935533;29;20183;-51
2021/11/13 08:03:47;;;;;;;3.03;1.33;;;20.20;43.60;;;;;;4935263;29;20054;-50
2021/11/13 08:06:13;;;;;;;3.67;1.70;;;20.20;43.60;;;;;;4935640;29;20457;-49
2021/11/13 08:08:40;;;;;;;4.10;1.52;;;20.20;43.60;;;;;;4935518;29;20042;-54
2021/11/13 08:11:05;;;;;;;2.55;1.25;;;20.20;43.60;;;;;;4935470;29;20043;-50
2021/11/13 08:13:31;;;;;;;2.75;1.35;;;20.20;43.60;;;;;;4938304;29;20024;-52
2021/11/13 08:15:56;;;;;;;3.10;1.42;;;20.20;43.60;;;;;;4939330;29;20112;-55
2021/11/13 08:18:22;;;;;;;2.47;1.17;;;20.20;43.60;;;;;;4939052;29;20456;-50
2021/11/13 08:20:48;;;;;;;3.85;1.60;;;20.20;43.60;;;;;;4938847;29;20051;-54
2021/11/13 08:23:15;;;;;;;3.33;1.20;;;20.20;43.60;;;;;;4938985;29;20032;-54
2021/11/13 08:25:42;;;;;;;3.67;1.55;;;20.20;43.60;;;;;;4938983;29;20114;-50
2021/11/13 08:28:08;;;;;;;3.63;1.60;;;20.20;43.70;;;;;;4938921;29;20043;-55
2021/11/13 08:30:35;;;;;;;3.97;1.30;;;20.20;43.60;;;;;;4939025;29;20032;-50
2021/11/13 08:33:02;;;;;;;3.05;1.45;;;20.20;43.60;;;;;;4938734;29;20369;-53
2021/11/13 08:35:28;;;;;;;2.88;1.05;;;20.20;43.60;;;;;;4938878;29;20031;-54
2021/11/13 08:37:53;;;;;;;3.40;1.20;;;20.20;43.60;;;;;;4938843;29;20365;-52
2021/11/13 08:40:19;;;;;;;3.10;1.42;;;20.20;43.60;;;;;;4938833;29;20459;-53
2021/11/13 08:42:45;;;;;;;2.72;1.40;;;20.20;43.60;;;;;;4938754;29;20032;-53
2021/11/13 08:45:12;;;;;;;2.35;1.23;;;20.20;43.70;;;;;;4938620;29;20047;-56
2021/11/13 08:47:40;;;;;;;2.85;1.40;;;20.20;43.70;;;;;;4938762;29;20042;-55
2021/11/13 08:50:09;;;;;;;3.33;1.40;;;20.20;43.70;;;;;;4938325;29;20108;-54
2021/11/13 08:52:35;;;;;;;2.72;1.20;;;20.30;43.60;;;;;;4938712;29;20031;-54
2021/11/13 08:55:01;;;;;;;2.72;1.30;;;20.20;43.70;;;;;;4938564;29;20189;-56
2021/11/13 08:57:27;;;;;;;2.88;1.30;;;20.30;43.70;;;;;;4938706;29;20139;-55
2021/11/13 08:59:52;;;;;;;2.42;1.40;;;20.20;43.70;;;;;;4938583;29;20031;-53
2021/11/13 09:02:24;;;;;;;3.03;1.23;;;20.30;43.70;;;;;;4938050;29;20472;-56
2021/11/13 09:04:51;;;;;;;3.22;1.50;;;20.20;43.70;;;;;;4938479;29;20027;-54
2021/11/13 09:07:19;;;;;;;4.05;1.40;;;20.30;43.70;;;;;;4937991;29;20598;-51
2021/11/13 09:09:45;;;;;;;2.63;1.25;;;20.20;43.70;;;;;;4938145;29;20032;-55
2021/11/13 09:12:21;;;;;;;2.60;1.25;;;20.20;43.70;;;;;;4938362;29;20032;-50
2021/11/13 09:14:47;;;;;;;3.70;1.50;;;20.30;43.70;;;;;;4938339;29;20038;-51
2021/11/13 09:17:12;;;;;;;2.63;1.33;;;20.30;43.70;;;;;;4936889;29;20036;-51
2021/11/13 09:19:38;;;;;;;2.08;1.17;;;20.30;43.70;;;;;;4937812;29;20030;-56
2021/11/13 09:22:04;;;;;;;2.38;1.20;;;20.30;43.70;;;;;;4938096;29;20123;-51
2021/11/13 09:24:29;;;;;;;3.20;1.30;;;20.30;43.80;;;;;;4937836;29;20027;-52
2021/11/13 09:26:55;;;;;;;2.55;1.30;;;20.30;43.70;;;;;;4937832;29;20490;-55
2021/11/13 09:29:21;;;;;;;2.45;1.30;;;20.30;43.70;;;;;;4937888;29;20056;-54
2021/11/13 09:31:48;;;;;;;3.28;1.40;;;20.30;43.70;;;;;;4937850;29;20071;-55
2021/11/13 09:34:17;;;;;;;2.53;1.27;;;20.30;43.80;;;;;;4937796;29;20119;-51
2021/11/13 09:36:43;;;;;;;2.78;1.50;;;20.30;43.80;;;;;;4937962;29;20043;-52
2021/11/13 09:39:09;;;;;;;3.17;1.30;;;20.30;43.70;;;;;;4937567;29;20546;-57
2021/11/13 09:41:35;;;;;;;1.98;1.08;;;20.30;43.80;;;;;;4937479;29;20040;-54
2021/11/13 09:44:01;;;;;;;2.65;1.40;;;20.30;43.80;;;;;;4937804;29;20020;-54
2021/11/13 09:46:28;;;;;;;3.25;1.40;;;20.30;43.70;;;;;;4937515;29;20031;-53
2021/11/13 09:48:55;;;;;;;2.13;1.13;;;20.30;43.80;;;;;;4937615;29;20106;-55
2021/11/13 09:51:22;;;;;;;2.03;1.30;;;20.30;43.80;;;;;;4937433;29;20095;-56
2021/11/13 09:53:48;;;;;;;3.38;1.50;;;20.30;43.80;;;;;;4937264;29;20031;-55
2021/11/13 09:56:14;;;;;;;2.60;1.10;;;20.30;43.80;;;;;;4937493;29;20034;-52
2021/11/13 09:58:40;;;;;;;3.08;1.52;;;20.30;43.80;;;;;;4937488;29;20131;-52
2021/11/13 10:01:07;;;;;;;2.63;1.13;;;20.30;43.80;;;;;;4937063;29;20107;-54
2021/11/13 10:03:33;;;;;;;2.80;1.17;;;20.30;43.80;;;;;;4936987;29;20047;-51
2021/11/13 10:06:03;;;;;;;3.08;1.15;;;20.30;43.80;;;;;;4937155;29;20039;-54
2021/11/13 10:08:29;;;;;;;3.40;1.30;;;20.30;43.80;;;;;;4937356;29;20083;-52
2021/11/13 10:10:58;;;;;;;2.70;1.23;;;20.30;43.80;;;;;;4937008;29;20023;-53
2021/11/13 10:13:29;;;;;;;2.45;1.00;;;20.30;43.90;;;;;;4937155;29;20051;-52
2021/11/13 10:15:58;;;;;;;2.45;1.27;;;20.30;43.90;;;;;;4937152;29;20024;-52
2021/11/13 10:18:27;;;;;;;2.40;1.23;;;20.30;43.90;;;;;;4936999;29;20076;-55
2021/11/13 10:20:56;;;;;;;1.67;1.00;;;20.30;43.90;;;;;;4936582;29;20028;-51
2021/11/13 10:23:27;;;;;;;1.95;1.08;;;20.30;43.90;;;;;;4937104;29;20036;-51
2021/11/13 10:26:03;;;;;;;3.90;1.40;;;20.30;43.90;;;;;;4936695;29;20027;-50
2021/11/13 10:28:30;;;;;;;2.92;1.30;;;20.30;43.90;;;;;;4936714;29;20031;-51
2021/11/13 10:31:06;;;;;;;2.88;1.50;;;20.30;43.90;;;;;;4936589;29;20511;-54
2021/11/13 10:33:32;;;;;;;2.38;1.25;;;20.30;43.90;;;;;;4936686;29;20027;-54
2021/11/13 10:35:58;;;;;;;2.47;1.08;;;20.30;43.90;;;;;;4935818;29;20036;-51
2021/11/13 10:38:24;;;;;;;3.60;1.30;;;20.30;43.90;;;;;;4936396;29;20494;-54
2021/11/13 10:40:54;;;;;;;2.72;1.10;;;20.30;43.90;;;;;;4936042;29;20036;-53
2021/11/13 10:43:29;;;;;;;3.05;1.40;;;20.30;43.90;;;;;;4936458;29;20122;-53
2021/11/13 10:45:58;;;;;;;3.78;1.40;;;20.30;43.90;;;;;;4936627;29;20067;-55
2021/11/13 10:48:24;;;;;;;2.70;1.20;;;20.30;43.90;;;;;;4936163;29;20035;-54
2021/11/13 10:50:50;;;;;;;2.38;1.00;;;20.30;44.00;;;;;;4936107;29;20039;-51
2021/11/13 10:53:25;;;;;;;2.88;1.33;;;20.30;44.00;;;;;;4935004;29;20035;-49
2021/11/13 10:56:15;;;;;;;2.60;1.30;;;20.30;44.00;;;;;;4936334;29;20062;-53
2021/11/13 10:58:46;;;;;;;2.42;1.15;;;20.30;44.00;;;;;;4936040;29;20038;-50
2021/11/13 11:01:28;;;;;;;2.50;1.10;;;20.30;44.00;;;;;;4935903;29;20059;-54
2021/11/13 11:04:05;;;;;;;2.78;1.38;;;20.30;44.00;;;;;;4935996;29;20064;-55
2021/11/13 11:06:37;;;;;;;3.25;1.30;;;20.30;44.00;;;;;;4936129;29;20086;-53
2021/11/13 11:09:38;;;;;;;2.25;1.05;;;20.30;44.00;;;;;;4936053;29;20028;-55
2021/11/13 11:12:11;;;;;;;2.38;1.25;;;20.30;44.00;;;;;;4932077;29;20039;-52
2021/11/13 11:14:40;;;;;;;2.17;1.02;;;20.40;44.00;;;;;;4935804;29;20502;-54
2021/11/13 11:17:31;;;;;;;2.85;1.17;;;20.40;44.10;;;;;;4935940;29;20058;-55
2021/11/13 11:20:05;;;;;;;2.05;1.10;;;20.30;44.10;;;;;;4932052;29;20027;-55
2021/11/13 11:22:31;;;;;;;2.50;1.00;;;20.30;44.10;;;;;;4935915;29;20099;-49
2021/11/13 11:24:58;;;;;;;2.33;1.10;;;20.30;44.00;;;;;;4935963;29;20110;-49
2021/11/13 11:27:42;;;;;;;2.00;1.08;;;20.30;44.10;;;;;;4935962;29;20036;-54
2021/11/13 11:30:13;;;;;;;1.98;1.00;;;20.30;44.10;;;;;;4935493;29;20036;-49
2021/11/13 11:32:42;;;;;;;3.90;1.33;;;20.40;44.10;;;;;;4935827;29;20032;-53
2021/11/13 11:35:16;;;;;;;2.17;1.10;;;20.40;44.10;;;;;;4935827;29;20383;-53
2021/11/13 11:37:51;;;;;;;2.20;1.00;;;20.40;44.10;;;;;;4935839;29;20094;-52
2021/11/13 11:40:26;;;;;;;4.20;1.30;;;20.40;44.10;;;;;;4935567;29;20035;-52
2021/11/13 11:42:52;;;;;;;2.50;1.15;;;20.40;44.10;;;;;;4935390;29;20036;-53
2021/11/13 11:45:25;;;;;;;2.38;1.05;;;20.40;44.10;;;;;;4935354;29;20030;-52
2021/11/13 11:47:53;;;;;;;2.92;1.33;;;20.30;44.10;;;;;;4938984;29;20020;-51
2021/11/13 11:50:26;;;;;;;2.45;1.10;;;20.40;44.10;;;;;;4939402;29;20034;-52
2021/11/13 11:52:56;;;;;;;2.35;1.20;;;20.30;44.20;;;;;;4939621;29;20075;-49
2021/11/13 11:55:22;;;;;;;2.47;1.30;;;20.30;44.20;;;;;;4939640;29;20027;-53
2021/11/13 11:57:54;;;;;;;2.67;1.13;;;20.40;44.20;;;;;;4939371;29;20050;-54
2021/11/13 12:00:23;;;;;;;1.98;1.10;;;20.40;44.20;;;;;;4939673;29;20036;-54
2021/11/13 12:02:51;;;;;;;2.67;1.02;;;20.40;44.10;;;;;;4939152;29;20051;-52
2021/11/13 12:05:23;;;;;;;2.63;1.02;;;20.40;44.20;;;;;;4939128;29;20467;-55
2021/11/13 12:07:52;;;;;;;2.88;1.25;;;20.30;44.20;;;;;;4939354;29;20028;-51
2021/11/13 12:10:20;;;;;;;2.55;1.30;;;20.40;44.20;;;;;;4939130;29;20067;-51
2021/11/13 12:13:10;;;;;;;2.50;1.10;;;20.40;44.20;;;;;;4939299;29;20028;-53
2021/11/13 12:15:53;;;;;;;3.20;1.30;;;20.30;44.30;;;;;;4939165;29;20032;-51
2021/11/13 12:18:23;;;;;;;2.50;1.10;;;20.40;44.20;;;;;;4938585;29;20158;-50
2021/11/13 12:21:02;;;;;;;2.83;1.38;;;20.40;44.20;;;;;;4938757;29;20675;-50
2021/11/13 12:23:39;;;;;;;2.83;1.20;;;20.40;44.20;;;;;;4939030;29;20554;-51
2021/11/13 12:26:34;;;;;;;2.17;1.00;;;20.30;44.20;;;;;;4939049;29;20498;-50
2021/11/13 12:29:05;;;;;;;3.15;1.45;;;20.40;44.30;;;;;;4938989;29;20086;-51
2021/11/13 12:31:46;;;;;;;3.97;1.45;;;20.40;44.20;;;;;;4939159;29;20039;-50
2021/11/13 12:34:14;;;;;;;2.72;1.27;;;20.30;44.30;;;;;;4938802;29;20380;-50
2021/11/13 12:37:00;;;;;;;5.35;1.35;;;20.40;44.30;;;;;;4938518;29;20479;-50
2021/11/13 12:39:30;;;;;;;1.60;1.10;;;20.40;44.30;;;;;;4938735;29;20046;-50
2021/11/13 12:42:04;;;;;;;2.38;1.10;;;20.40;44.30;;;;;;4938281;29;20488;-53
2021/11/13 12:44:33;;;;;;;3.08;1.30;;;20.40;44.30;;;;;;4938858;29;20388;-50
2021/11/13 12:47:09;;;;;;;2.67;1.13;;;20.30;44.30;;;;;;4938496;29;20039;-52
2021/11/13 12:49:53;;;;;;;2.90;1.00;;;20.40;44.30;;;;;;4938457;29;20055;-51
2021/11/13 12:52:40;;;;;;;1.88;1.05;;;20.40;44.30;;;;;;4938773;29;20111;-50